Time;durP1;ratioP1;P1;durP2;ratioP2;P2;SDS_P1;SDS_P2;PMS_P1;PMS_P2;Temp;Humidity;BMP_temperature;BMP_pressure;BME280_temperature;BME280_humidity;BME280_pressure;Samples;Min_cycle;Max_cycle;Signal;HPM_P1;HPM_P2
2024/04/23 00:01:19;;;;;;;683.38;156.02;;;11.10;51.60;;;;;;5269885;26;20020;-62
2024/04/23 00:03:47;;;;;;;460.38;78.43;;;11.00;51.50;;;;;;5279676;26;20494;-61
2024/04/23 00:06:20;;;;;;;463.33;88.90;;;10.90;51.60;;;;;;5273714;26;20416;-61
2024/04/23 00:08:48;;;;;;;575.47;121.53;;;11.00;51.70;;;;;;5275159;26;20084;-62
2024/04/23 00:11:19;;;;;;;660.35;153.00;;;11.00;51.70;;;;;;5278123;26;20011;-61
2024/04/23 00:13:47;;;;;;;466.83;115.75;;;11.00;51.70;;;;;;5286646;26;20001;-63
2024/04/23 00:16:17;;;;;;;464.23;104.80;;;10.90;51.60;;;;;;5291486;26;20001;-62
2024/04/23 00:18:45;;;;;;;500.70;117.05;;;10.90;51.60;;;;;;5288976;26;20002;-63
2024/04/23 00:21:16;;;;;;;766.25;202.05;;;10.90;51.70;;;;;;5255822;26;20938;-62
2024/04/23 00:23:46;;;;;;;531.20;126.43;;;10.80;51.60;;;;;;5287959;26;20006;-63
2024/04/23 00:26:17;;;;;;;476.42;111.00;;;10.80;51.80;;;;;;5288978;26;20021;-62
2024/04/23 00:28:44;;;;;;;481.15;112.35;;;10.70;51.70;;;;;;5289719;26;20009;-64
2024/04/23 00:31:15;;;;;;;676.22;169.98;;;10.70;51.80;;;;;;5271534;26;20791;-61
2024/04/23 00:33:43;;;;;;;463.25;114.10;;;10.80;52.20;;;;;;5277811;26;20064;-63
2024/04/23 00:36:14;;;;;;;484.15;125.55;;;10.70;51.80;;;;;;5279437;26;20419;-63
2024/04/23 00:38:41;;;;;;;468.33;112.20;;;10.70;51.80;;;;;;5288966;26;20080;-63
2024/04/23 00:41:15;;;;;;;464.92;107.85;;;10.70;51.90;;;;;;5285382;26;20057;-62
2024/04/23 00:43:44;;;;;;;473.70;108.03;;;10.80;52.60;;;;;;5276009;26;20017;-62
2024/04/23 00:46:17;;;;;;;510.15;122.90;;;10.80;51.80;;;;;;5280139;26;20017;-62
2024/04/23 00:48:45;;;;;;;478.38;110.65;;;10.80;51.80;;;;;;5288001;26;20016;-62
2024/04/23 00:51:15;;;;;;;476.95;110.05;;;10.80;51.80;;;;;;5274906;26;20057;-63
2024/04/23 00:53:44;;;;;;;726.80;194.10;;;10.90;51.80;;;;;;5266342;26;20020;-62
2024/04/23 00:56:19;;;;;;;463.65;111.28;;;10.80;51.70;;;;;;5273442;26;20041;-63
2024/04/23 00:58:48;;;;;;;481.17;118.82;;;10.80;51.80;;;;;;5275308;26;20042;-62
2024/04/23 01:01:19;;;;;;;512.45;119.90;;;10.80;51.70;;;;;;5280097;26;20002;-63
2024/04/23 01:03:47;;;;;;;698.45;202.35;;;10.80;51.80;;;;;;5271704;26;20033;-63
2024/04/23 01:06:17;;;;;;;477.55;112.25;;;10.80;51.80;;;;;;5283026;26;20005;-63
2024/04/23 01:08:45;;;;;;;488.95;131.63;;;10.80;51.80;;;;;;5283673;26;20008;-63
2024/04/23 01:11:18;;;;;;;468.30;121.38;;;10.80;51.80;;;;;;5275878;26;20006;-62
2024/04/23 01:13:46;;;;;;;700.03;190.77;;;10.80;51.90;;;;;;5270383;26;20471;-62
2024/04/23 01:16:18;;;;;;;478.85;118.22;;;10.80;51.90;;;;;;5288409;26;20010;-63
2024/04/23 01:18:49;;;;;;;475.33;104.47;;;10.80;51.90;;;;;;5271725;26;20060;-62
2024/04/23 01:21:23;;;;;;;466.70;106.18;;;10.80;51.90;;;;;;5279871;26;20044;-62
2024/04/23 01:24:00;;;;;;;460.67;103.05;;;10.80;51.90;;;;;;5280003;26;20022;-62
2024/04/23 01:26:31;;;;;;;471.60;108.22;;;10.80;51.80;;;;;;5277835;26;20006;-62
2024/04/23 01:29:02;;;;;;;462.50;104.82;;;10.80;51.80;;;;;;5276255;26;20017;-62
2024/04/23 01:31:30;;;;;;;459.63;105.70;;;10.80;51.90;;;;;;5281186;26;20503;-63
2024/04/23 01:34:02;;;;;;;489.77;110.80;;;10.80;51.90;;;;;;5275703;26;20017;-63
2024/04/23 01:36:30;;;;;;;478.30;102.95;;;10.80;51.90;;;;;;5286448;26;20021;-63
2024/04/23 01:39:02;;;;;;;490.45;105.75;;;10.80;51.80;;;;;;5287784;26;20460;-63
2024/04/23 01:41:33;;;;;;;466.08;104.53;;;10.80;51.90;;;;;;5267691;26;20023;-62
2024/04/23 01:44:05;;;;;;;490.48;114.47;;;10.80;51.90;;;;;;5275387;26;20038;-62
2024/04/23 01:46:33;;;;;;;504.10;130.45;;;10.80;51.90;;;;;;5265116;26;20005;-62
2024/04/23 01:49:04;;;;;;;461.63;105.85;;;10.80;51.90;;;;;;5277334;26;19999;-62
2024/04/23 01:51:32;;;;;;;462.23;103.15;;;10.70;51.80;;;;;;5279326;26;20013;-63
2024/04/23 01:54:03;;;;;;;494.00;109.63;;;10.70;51.90;;;;;;5279884;26;19998;-62
2024/04/23 01:56:33;;;;;;;645.42;177.02;;;10.80;51.90;;;;;;5266168;26;20756;-63
2024/04/23 01:59:04;;;;;;;460.98;83.53;;;10.70;51.80;;;;;;5285477;26;20110;-63
2024/04/23 02:01:37;;;;;;;471.02;79.55;;;10.70;51.80;;;;;;5315787;26;20026;-62
2024/04/23 02:04:09;;;;;;;469.80;79.07;;;10.70;51.90;;;;;;5281924;26;20033;-61
2024/04/23 02:06:37;;;;;;;664.65;154.43;;;10.70;51.90;;;;;;5284176;26;20017;-61
2024/04/23 02:09:08;;;;;;;486.58;89.72;;;10.70;52.00;;;;;;5287542;26;20006;-63
2024/04/23 02:11:40;;;;;;;481.70;94.43;;;10.70;51.90;;;;;;5275987;26;20039;-63
2024/04/23 02:14:11;;;;;;;466.17;95.75;;;10.80;52.00;;;;;;5288794;26;20013;-65
2024/04/23 02:16:39;;;;;;;466.30;83.07;;;10.80;51.90;;;;;;5286549;26;20001;-61
2024/04/23 02:19:10;;;;;;;462.63;90.68;;;10.80;51.90;;;;;;5275035;26;20025;-63
2024/04/23 02:21:38;;;;;;;454.02;83.63;;;10.80;51.80;;;;;;5277508;26;20002;-64
2024/04/23 02:24:08;;;;;;;467.23;86.25;;;10.80;51.80;;;;;;5312841;26;20056;-62
2024/04/23 02:26:38;;;;;;;446.10;81.28;;;10.80;52.00;;;;;;5282638;26;20597;-63
2024/04/23 02:29:09;;;;;;;665.90;162.00;;;10.80;51.80;;;;;;5263974;26;20018;-62
2024/04/23 02:31:37;;;;;;;453.55;80.43;;;10.80;51.90;;;;;;5284940;26;20006;-64
2024/04/23 02:34:07;;;;;;;491.50;93.53;;;10.70;51.70;;;;;;5282313;26;20006;-62
2024/04/23 02:36:37;;;;;;;456.27;97.07;;;10.70;52.40;;;;;;5287523;26;20028;-63
2024/04/23 02:39:09;;;;;;;460.25;101.50;;;10.70;51.80;;;;;;5315408;26;20005;-62
2024/04/23 02:41:49;;;;;;;689.05;164.85;;;10.70;51.80;;;;;;5274728;26;19998;-61
2024/04/23 02:44:19;;;;;;;461.58;91.15;;;10.70;51.90;;;;;;5287206;26;20101;-63
2024/04/23 02:46:47;;;;;;;488.48;104.88;;;10.70;51.70;;;;;;5286200;26;20020;-62
2024/04/23 02:49:18;;;;;;;472.60;101.53;;;10.70;51.70;;;;;;5279836;26;20077;-61
2024/04/23 02:51:48;;;;;;;463.85;88.93;;;10.60;51.70;;;;;;5280027;26;20003;-63
2024/04/23 02:54:19;;;;;;;656.40;158.25;;;10.60;51.70;;;;;;5273856;26;20009;-63
2024/04/23 02:56:51;;;;;;;459.50;100.53;;;10.70;52.10;;;;;;5307149;26;20002;-61
2024/04/23 02:59:22;;;;;;;471.35;99.03;;;10.60;51.70;;;;;;5280186;26;20018;-62
2024/04/23 03:02:00;;;;;;;464.95;92.03;;;10.60;51.70;;;;;;5275756;26;20716;-63
2024/04/23 03:04:31;;;;;;;701.60;168.93;;;10.60;51.70;;;;;;5263154;26;20001;-61
2024/04/23 03:06:59;;;;;;;472.80;101.85;;;10.60;51.70;;;;;;5276663;26;20080;-63
2024/04/23 03:09:30;;;;;;;555.53;119.47;;;10.60;51.70;;;;;;5280310;26;20016;-63
2024/04/23 03:12:00;;;;;;;459.80;100.80;;;10.60;51.60;;;;;;5284790;26;20006;-63
2024/04/23 03:14:31;;;;;;;460.45;90.78;;;10.60;51.60;;;;;;5281947;26;20786;-62
2024/04/23 03:16:58;;;;;;;707.55;187.52;;;10.60;51.60;;;;;;5270771;26;20021;-62
2024/04/23 03:19:29;;;;;;;483.23;88.45;;;10.50;51.60;;;;;;5270481;26;20026;-63
2024/04/23 03:21:57;;;;;;;455.17;82.40;;;10.50;51.60;;;;;;5289886;26;20399;-62
2024/04/23 03:24:28;;;;;;;470.23;85.88;;;10.50;51.80;;;;;;5279316;26;20038;-62
2024/04/23 03:26:56;;;;;;;546.40;114.43;;;10.50;51.70;;;;;;5262490;26;20053;-61
2024/04/23 03:29:30;;;;;;;495.90;91.68;;;10.40;51.60;;;;;;5282254;26;20006;-62
2024/04/23 03:32:02;;;;;;;540.70;105.40;;;10.40;51.60;;;;;;5283000;26;20018;-62
2024/04/23 03:34:33;;;;;;;452.45;82.47;;;10.30;51.60;;;;;;5278158;26;20751;-64
2024/04/23 03:37:04;;;;;;;468.58;89.47;;;10.30;51.60;;;;;;5277186;26;20042;-62
2024/04/23 03:39:34;;;;;;;670.55;159.95;;;10.20;51.70;;;;;;5258722;26;20056;-62
2024/04/23 03:42:05;;;;;;;470.27;85.93;;;10.20;51.80;;;;;;5276463;26;20057;-61
2024/04/23 03:44:39;;;;;;;469.40;88.50;;;10.10;51.80;;;;;;5289808;26;20279;-63
2024/04/23 03:47:11;;;;;;;476.30;85.50;;;10.10;51.80;;;;;;5275218;26;20464;-62
2024/04/23 03:49:39;;;;;;;515.67;97.47;;;10.00;51.80;;;;;;5283812;26;20002;-63
2024/04/23 03:52:10;;;;;;;516.28;104.53;;;10.00;51.90;;;;;;5265537;26;20046;-62
2024/04/23 03:54:38;;;;;;;493.42;95.82;;;9.90;51.80;;;;;;5283390;26;20005;-62
2024/04/23 03:57:08;;;;;;;448.10;75.18;;;9.90;51.90;;;;;;5286430;26;20024;-61
2024/04/23 03:59:39;;;;;;;515.58;93.03;;;9.80;51.90;;;;;;5284612;26;20023;-62
2024/04/23 04:07:42;;;;;;;;;;;9.60;52.10;;;;;;5275435;26;20007;-62
2024/04/23 04:10:13;;;;;;;443.85;73.03;;;9.50;52.20;;;;;;5270138;26;19935;-61
2024/04/23 04:12:43;;;;;;;646.25;139.52;;;9.40;52.30;;;;;;5270224;26;19998;-62
2024/04/23 04:15:16;;;;;;;435.92;71.78;;;9.40;52.40;;;;;;5271845;26;20510;-66
2024/04/23 04:17:44;;;;;;;467.75;77.63;;;9.40;52.40;;;;;;5280190;26;20010;-62
2024/04/23 04:20:15;;;;;;;444.52;73.50;;;9.40;52.50;;;;;;5291648;26;20568;-62
2024/04/23 04:22:42;;;;;;;484.15;83.47;;;9.40;52.50;;;;;;5285754;26;20016;-63
2024/04/23 04:25:13;;;;;;;659.05;142.70;;;9.40;52.40;;;;;;5273860;26;20007;-62
2024/04/23 04:27:41;;;;;;;512.15;90.28;;;9.50;52.80;;;;;;5278725;26;20011;-62
2024/04/23 04:30:11;;;;;;;462.13;75.68;;;9.60;52.50;;;;;;5286994;26;20005;-63
2024/04/23 04:32:42;;;;;;;470.50;79.95;;;9.70;52.40;;;;;;5272912;26;20010;-63
2024/04/23 04:35:13;;;;;;;485.83;82.78;;;9.70;52.30;;;;;;5279607;26;20084;-62
2024/04/23 04:37:40;;;;;;;485.15;84.50;;;9.70;52.20;;;;;;5279157;26;20002;-67
2024/04/23 04:40:11;;;;;;;747.65;178.98;;;9.80;52.20;;;;;;5265812;26;20003;-65
2024/04/23 04:42:42;;;;;;;481.02;84.15;;;9.80;52.30;;;;;;5277527;26;20006;-66
2024/04/23 04:45:11;;;;;;;480.48;80.68;;;9.80;52.20;;;;;;5277331;26;20006;-62
2024/04/23 04:47:47;;;;;;;528.45;97.43;;;9.90;52.10;;;;;;5267596;26;20461;-62
2024/04/23 04:50:17;;;;;;;474.30;84.53;;;9.90;52.10;;;;;;5272769;26;20020;-62
2024/04/23 04:52:48;;;;;;;458.10;78.32;;;9.90;52.10;;;;;;5308984;26;20080;-70
2024/04/23 04:55:17;;;;;;;488.80;84.85;;;9.90;52.20;;;;;;5267424;26;20005;-72
2024/04/23 04:57:48;;;;;;;460.40;81.57;;;10.20;52.90;;;;;;5301012;26;20252;-73
2024/04/23 05:00:16;;;;;;;518.88;89.30;;;10.50;53.10;;;;;;5292175;26;20037;-68
2024/04/23 05:02:49;;;;;;;489.17;83.88;;;10.90;53.00;;;;;;5278998;26;20006;-60
2024/04/23 05:05:18;;;;;;;469.20;80.07;;;11.20;52.20;;;;;;5263725;26;20011;-61
2024/04/23 05:07:48;;;;;;;479.77;85.57;;;11.20;51.50;;;;;;5269561;26;20805;-60
2024/04/23 05:10:16;;;;;;;445.42;73.95;;;11.10;51.10;;;;;;5275409;26;20096;-61
2024/04/23 05:12:47;;;;;;;470.08;81.93;;;11.00;50.90;;;;;;5284268;26;20372;-60
2024/04/23 05:15:16;;;;;;;474.23;83.45;;;10.90;51.10;;;;;;5265151;26;20049;-61
2024/04/23 05:17:49;;;;;;;516.95;93.65;;;10.80;51.20;;;;;;5270136;26;20014;-62
2024/04/23 05:20:17;;;;;;;508.13;91.07;;;10.70;51.20;;;;;;5276056;26;20076;-61
2024/04/23 05:22:51;;;;;;;481.52;85.00;;;10.70;51.30;;;;;;5271118;26;19998;-60
2024/04/23 05:25:19;;;;;;;475.95;85.00;;;10.60;51.20;;;;;;5306558;26;20413;-61
2024/04/23 05:27:50;;;;;;;556.15;105.22;;;10.50;51.30;;;;;;5300125;26;21239;-62
2024/04/23 05:33:14;;;;;;;696.00;159.93;;;10.40;51.50;;;;;;5259781;26;20026;-62
2024/04/23 05:35:45;;;;;;;478.08;83.65;;;10.40;51.70;;;;;;5274048;26;20084;-63
2024/04/23 05:38:15;;;;;;;501.23;87.28;;;10.50;51.70;;;;;;5281941;26;20016;-62
2024/04/23 05:40:46;;;;;;;501.45;91.00;;;10.50;51.60;;;;;;5279985;26;20356;-61
2024/04/23 05:43:18;;;;;;;490.98;85.53;;;10.50;51.60;;;;;;5270152;26;20900;-65
2024/04/23 05:45:48;;;;;;;484.05;87.53;;;10.60;51.80;;;;;;5275609;26;20013;-61
2024/04/23 05:48:56;;;;;;;503.67;91.18;;;10.70;51.70;;;;;;5260953;26;20003;-62
2024/04/23 05:52:23;;;;;;;493.67;88.65;;;10.70;51.50;;;;;;5273210;26;20076;-62
2024/04/23 05:55:38;;;;;;;547.03;104.72;;;10.80;51.60;;;;;;5259036;26;20564;-59
2024/04/23 05:58:11;;;;;;;570.72;111.85;;;10.80;51.60;;;;;;5260267;26;20006;-61
2024/04/23 06:00:40;;;;;;;503.70;89.97;;;10.90;51.50;;;;;;5298829;26;20010;-62
2024/04/23 06:03:11;;;;;;;738.03;168.60;;;10.90;51.40;;;;;;5266300;26;20526;-66
2024/04/23 06:05:39;;;;;;;537.83;93.50;;;10.90;51.10;;;;;;5263884;26;20963;-61
2024/04/23 06:08:10;;;;;;;582.28;112.03;;;10.90;51.30;;;;;;5273694;26;20002;-61
2024/04/23 06:10:40;;;;;;;477.30;80.15;;;11.00;51.40;;;;;;5285181;26;20150;-60
2024/04/23 06:13:11;;;;;;;715.83;155.10;;;11.10;51.30;;;;;;5251824;26;20007;-61
2024/04/23 06:15:39;;;;;;;454.20;76.25;;;11.20;51.40;;;;;;5275056;26;20030;-60
2024/04/23 06:18:10;;;;;;;477.17;80.60;;;11.30;51.30;;;;;;5277668;26;20042;-61
2024/04/23 06:20:38;;;;;;;513.92;89.72;;;11.40;51.20;;;;;;5291286;26;20395;-61
2024/04/23 06:23:11;;;;;;;660.95;150.32;;;11.50;51.10;;;;;;5256046;26;20184;-62
2024/04/23 06:25:47;;;;;;;509.20;90.25;;;11.60;51.00;;;;;;5274598;26;20016;-60
2024/04/23 06:28:18;;;;;;;476.15;82.05;;;11.70;50.90;;;;;;5282602;26;20080;-60
2024/04/23 06:30:46;;;;;;;480.27;82.82;;;11.60;50.50;;;;;;5276352;26;20006;-64
2024/04/23 06:33:16;;;;;;;593.40;124.95;;;11.70;50.80;;;;;;5268801;26;20049;-62
2024/04/23 06:35:44;;;;;;;498.90;85.53;;;11.90;51.00;;;;;;5278477;26;20068;-60
2024/04/23 06:38:15;;;;;;;472.63;82.50;;;12.10;50.80;;;;;;5284512;26;20450;-60
2024/04/23 06:40:43;;;;;;;480.75;82.82;;;12.20;50.50;;;;;;5277755;26;20337;-60
2024/04/23 06:43:16;;;;;;;661.67;141.00;;;12.20;50.40;;;;;;5278413;26;20395;-61
2024/04/23 06:45:44;;;;;;;472.83;82.72;;;12.30;50.70;;;;;;5277123;26;20005;-64
2024/04/23 06:48:15;;;;;;;474.13;81.82;;;12.50;50.90;;;;;;5284929;26;20013;-61
2024/04/23 06:50:43;;;;;;;510.20;91.78;;;12.70;50.70;;;;;;5285342;26;20014;-61
2024/04/23 06:53:14;;;;;;;743.67;174.98;;;12.70;49.80;;;;;;5264828;26;20033;-59
2024/04/23 06:55:42;;;;;;;454.92;76.38;;;12.60;49.40;;;;;;5287553;26;20022;-60
2024/04/23 06:58:12;;;;;;;576.13;109.65;;;12.50;49.70;;;;;;5274629;26;20445;-61
2024/04/23 07:00:43;;;;;;;490.65;85.60;;;12.70;50.00;;;;;;5284654;26;20356;-62
2024/04/23 07:03:14;;;;;;;610.47;124.85;;;12.90;50.70;;;;;;5271908;26;20005;-58
2024/04/23 07:05:42;;;;;;;478.35;83.55;;;13.30;50.20;;;;;;5280549;26;20037;-60
2024/04/23 07:08:12;;;;;;;476.30;83.32;;;13.50;49.70;;;;;;5279578;26;20033;-61
2024/04/23 07:10:40;;;;;;;486.60;85.95;;;13.40;48.80;;;;;;5271549;26;20007;-61
2024/04/23 07:13:11;;;;;;;514.50;95.95;;;13.50;49.50;;;;;;5275057;26;20021;-59
2024/04/23 07:15:43;;;;;;;495.08;88.03;;;13.70;49.70;;;;;;5277506;26;20457;-62
2024/04/23 07:18:13;;;;;;;518.70;93.13;;;13.90;49.10;;;;;;5276662;26;20083;-62
2024/04/23 07:20:41;;;;;;;539.88;104.13;;;13.90;48.80;;;;;;5277603;26;20091;-60
2024/04/23 07:23:12;;;;;;;487.25;85.40;;;13.90;48.70;;;;;;5276428;26;20005;-60
2024/04/23 07:25:40;;;;;;;479.10;85.28;;;14.00;48.90;;;;;;5276911;26;21107;-61
2024/04/23 07:28:11;;;;;;;507.65;88.93;;;14.20;49.00;;;;;;5278993;26;20468;-60
2024/04/23 07:30:40;;;;;;;488.42;86.97;;;14.10;48.00;;;;;;5284584;26;20002;-62
2024/04/23 07:33:14;;;;;;;464.55;80.57;;;14.10;48.70;;;;;;5282702;26;20243;-61
2024/04/23 07:35:43;;;;;;;542.97;100.88;;;14.20;49.20;;;;;;5266524;26;21226;-61
2024/04/23 07:38:14;;;;;;;480.95;84.63;;;14.40;49.10;;;;;;5287578;26;20414;-60
2024/04/23 07:40:46;;;;;;;505.92;91.90;;;14.70;49.20;;;;;;5282389;26;20002;-61
2024/04/23 07:43:17;;;;;;;508.40;91.65;;;15.00;48.60;;;;;;5276661;26;20500;-61
2024/04/23 07:45:47;;;;;;;605.40;136.93;;;14.30;47.10;;;;;;5264309;26;21036;-62
2024/04/23 07:48:18;;;;;;;495.85;89.05;;;14.20;48.20;;;;;;5281681;26;20009;-60
2024/04/23 07:50:52;;;;;;;476.48;85.72;;;14.30;48.70;;;;;;5277071;26;20003;-60
2024/04/23 07:53:20;;;;;;;569.40;104.35;;;14.40;48.70;;;;;;5272597;26;20002;-61
2024/04/23 07:55:51;;;;;;;662.60;159.15;;;14.70;49.10;;;;;;5276005;26;20061;-61
2024/04/23 07:58:20;;;;;;;510.70;91.78;;;15.00;48.50;;;;;;5278056;26;20088;-63
2024/04/23 08:00:50;;;;;;;507.63;91.55;;;15.10;48.40;;;;;;5276055;26;20341;-62
2024/04/23 08:03:21;;;;;;;547.97;102.82;;;15.10;48.20;;;;;;5269637;26;20791;-60
2024/04/23 08:05:56;;;;;;;664.75;148.80;;;15.20;47.80;;;;;;5261747;26;20013;-61
2024/04/23 08:08:24;;;;;;;513.00;93.50;;;15.10;47.40;;;;;;5278391;26;20017;-60
2024/04/23 08:10:55;;;;;;;483.23;86.18;;;15.10;48.00;;;;;;5287571;26;20334;-64
2024/04/23 08:13:23;;;;;;;552.88;101.13;;;15.00;47.00;;;;;;5271270;26;20015;-60
2024/04/23 08:15:58;;;;;;;490.90;88.20;;;14.90;47.20;;;;;;5280639;26;19998;-63
2024/04/23 08:18:29;;;;;;;513.17;111.63;;;14.70;47.30;;;;;;5264584;26;20007;-62
2024/04/23 08:20:59;;;;;;;493.35;88.97;;;14.70;47.90;;;;;;5275932;26;20028;-61
2024/04/23 08:23:27;;;;;;;475.08;87.22;;;14.80;47.90;;;;;;5280442;26;20020;-65
2024/04/23 08:26:00;;;;;;;509.88;92.90;;;15.00;47.90;;;;;;5278580;26;20090;-60
2024/04/23 08:28:28;;;;;;;706.92;170.07;;;15.20;48.00;;;;;;5274084;26;20420;-62
2024/04/23 08:30:59;;;;;;;569.42;110.95;;;15.30;47.50;;;;;;5280307;26;20016;-62
2024/04/23 08:33:29;;;;;;;477.83;88.50;;;15.20;46.80;;;;;;5271124;26;20013;-61
2024/04/23 08:36:00;;;;;;;485.48;89.00;;;15.00;47.10;;;;;;5287013;26;20413;-61
2024/04/23 08:38:28;;;;;;;577.97;117.93;;;14.80;47.50;;;;;;5275237;26;20013;-60
2024/04/23 08:41:00;;;;;;;500.98;97.85;;;14.80;47.60;;;;;;5285720;26;20354;-60
2024/04/23 08:43:34;;;;;;;531.90;101.95;;;14.80;47.70;;;;;;5286809;26;20131;-61
2024/04/23 08:46:03;;;;;;;485.30;86.93;;;14.60;47.40;;;;;;5286863;26;20019;-60
2024/04/23 08:48:40;;;;;;;513.15;95.50;;;14.60;47.80;;;;;;5278676;26;20045;-61
2024/04/23 08:51:09;;;;;;;483.63;87.00;;;14.70;48.40;;;;;;5278815;26;20013;-60
2024/04/23 08:53:41;;;;;;;478.90;86.50;;;14.90;48.00;;;;;;5281485;26;20020;-61
2024/04/23 08:56:13;;;;;;;510.88;93.32;;;14.90;48.10;;;;;;5282563;26;20021;-62
2024/04/23 08:58:45;;;;;;;552.40;102.68;;;14.90;47.80;;;;;;5275643;26;20002;-61
2024/04/23 09:01:17;;;;;;;499.30;93.35;;;15.00;48.20;;;;;;5274104;26;21035;-60
2024/04/23 09:03:53;;;;;;;475.35;85.80;;;15.10;48.60;;;;;;5280728;26;20037;-61
2024/04/23 09:06:21;;;;;;;500.77;92.78;;;15.10;47.60;;;;;;5281653;26;20005;-61
2024/04/23 09:08:52;;;;;;;497.80;92.85;;;15.10;47.80;;;;;;5279262;26;20076;-61
2024/04/23 09:11:21;;;;;;;736.00;184.57;;;15.00;47.30;;;;;;5264185;26;20085;-60
2024/04/23 09:13:52;;;;;;;487.88;89.93;;;15.00;47.60;;;;;;5281567;26;20025;-61
2024/04/23 09:16:20;;;;;;;477.40;86.70;;;15.10;48.10;;;;;;5278701;26;20087;-61
2024/04/23 09:18:54;;;;;;;489.80;89.43;;;15.20;47.80;;;;;;5283103;26;20006;-60
2024/04/23 09:21:22;;;;;;;695.38;159.52;;;15.10;47.70;;;;;;5272393;26;20039;-59
2024/04/23 09:23:53;;;;;;;482.27;89.07;;;15.00;47.60;;;;;;5287464;26;20041;-63
2024/04/23 09:26:24;;;;;;;490.38;90.65;;;14.80;47.30;;;;;;5271352;26;20548;-59
2024/04/23 09:28:56;;;;;;;512.25;94.75;;;14.70;47.70;;;;;;5271336;26;20010;-60
2024/04/23 09:31:24;;;;;;;509.13;94.28;;;14.70;47.90;;;;;;5272126;26;20006;-61
2024/04/23 09:33:59;;;;;;;582.05;129.70;;;14.80;48.80;;;;;;5271289;26;20001;-61
2024/04/23 09:36:28;;;;;;;486.20;89.30;;;15.00;48.40;;;;;;5286137;26;20765;-60
2024/04/23 09:39:02;;;;;;;549.90;106.22;;;15.20;48.10;;;;;;5277416;26;20459;-61
2024/04/23 09:41:31;;;;;;;478.40;90.97;;;15.20;47.70;;;;;;5269539;26;20093;-61
2024/04/23 09:44:04;;;;;;;677.95;166.75;;;15.10;47.80;;;;;;5272710;26;20009;-60
2024/04/23 09:46:33;;;;;;;496.92;94.72;;;15.20;48.00;;;;;;5281139;26;20013;-63
2024/04/23 09:49:09;;;;;;;500.63;97.00;;;15.40;48.10;;;;;;5281652;26;20084;-61
2024/04/23 09:51:37;;;;;;;545.00;112.78;;;15.50;48.20;;;;;;5277675;26;20003;-62
2024/04/23 09:54:08;;;;;;;490.70;93.53;;;15.60;48.10;;;;;;5285133;26;20017;-61
2024/04/23 09:56:36;;;;;;;710.30;184.30;;;15.80;48.00;;;;;;5268794;26;20783;-62
2024/04/23 09:59:15;;;;;;;489.20;103.18;;;16.10;48.20;;;;;;5289217;26;20523;-61
2024/04/23 10:01:47;;;;;;;491.05;92.47;;;16.30;47.60;;;;;;5311127;26;20006;-60
2024/04/23 10:04:22;;;;;;;500.95;100.07;;;16.40;47.60;;;;;;5277428;26;20016;-61
2024/04/23 10:06:55;;;;;;;704.08;178.63;;;16.60;47.80;;;;;;5267582;26;20002;-62
2024/04/23 10:09:32;;;;;;;580.10;123.25;;;16.60;47.40;;;;;;5270025;26;20003;-64
2024/04/23 10:12:06;;;;;;;486.05;91.90;;;16.50;47.30;;;;;;5272425;26;20037;-61
2024/04/23 10:14:45;;;;;;;495.88;94.10;;;16.40;47.30;;;;;;5280866;26;20002;-61
2024/04/23 10:17:23;;;;;;;680.83;170.02;;;16.40;47.50;;;;;;5272701;26;20001;-61
2024/04/23 10:19:59;;;;;;;514.05;99.38;;;16.40;47.70;;;;;;5285666;26;20419;-61
2024/04/23 10:22:27;;;;;;;;;;;16.50;48.00;;;;;;5286339;26;20013;-61
2024/04/23 10:24:58;;;;;;;483.27;89.97;;;16.60;47.80;;;;;;5279458;26;20266;-60
2024/04/23 10:27:28;;;;;;;683.65;169.75;;;16.70;47.90;;;;;;5276973;26;20013;-60
2024/04/23 10:30:00;;;;;;;489.15;94.60;;;16.70;47.80;;;;;;5286218;26;20001;-61
2024/04/23 10:32:29;;;;;;;511.98;97.25;;;16.70;47.70;;;;;;5276635;26;20001;-61
2024/04/23 10:35:04;;;;;;;493.15;94.75;;;16.70;47.50;;;;;;5302499;26;20003;-61
2024/04/23 10:37:33;;;;;;;506.00;98.22;;;16.70;47.30;;;;;;5273759;26;20140;-60
2024/04/23 10:40:08;;;;;;;554.00;111.45;;;16.70;47.20;;;;;;5277248;26;20026;-61
2024/04/23 10:42:36;;;;;;;507.80;96.38;;;16.40;46.60;;;;;;5288218;26;20125;-65
2024/04/23 10:45:08;;;;;;;577.00;124.38;;;16.20;46.90;;;;;;5261717;26;20021;-61
2024/04/23 10:47:48;;;;;;;511.15;102.95;;;16.30;47.70;;;;;;5279762;26;20018;-61
2024/04/23 10:50:30;;;;;;;502.70;115.30;;;16.50;47.50;;;;;;5267744;26;19998;-61
2024/04/23 10:53:09;;;;;;;534.83;105.40;;;16.60;47.30;;;;;;5282170;26;20013;-63
2024/04/23 10:55:40;;;;;;;513.03;98.28;;;16.60;47.10;;;;;;5276830;26;20017;-60
2024/04/23 10:58:08;;;;;;;558.10;113.78;;;16.70;47.40;;;;;;5271315;26;20403;-60
2024/04/23 11:00:39;;;;;;;670.42;167.90;;;17.00;47.80;;;;;;5277279;26;20012;-63
2024/04/23 11:03:16;;;;;;;615.42;137.93;;;17.30;47.80;;;;;;5281399;26;20431;-63
2024/04/23 11:05:50;;;;;;;493.13;106.13;;;17.60;47.40;;;;;;5280940;26;20005;-64
2024/04/23 11:08:23;;;;;;;561.38;118.32;;;17.60;46.60;;;;;;5279426;26;20216;-66
2024/04/23 11:11:04;;;;;;;564.58;125.95;;;17.70;47.20;;;;;;5276456;26;20560;-61
2024/04/23 11:13:37;;;;;;;479.48;97.75;;;17.80;47.00;;;;;;5274201;26;20024;-66
2024/04/23 11:16:16;;;;;;;495.33;108.05;;;17.80;47.00;;;;;;5308394;26;20773;-62
2024/04/23 11:18:46;;;;;;;526.33;108.20;;;17.60;46.30;;;;;;5282766;26;20005;-65
2024/04/23 11:21:26;;;;;;;712.33;199.00;;;17.60;46.90;;;;;;5291072;26;20517;-63
2024/04/23 11:23:56;;;;;;;499.35;103.82;;;17.90;46.90;;;;;;5313083;26;20402;-63
2024/04/23 11:26:27;;;;;;;532.35;105.28;;;17.90;46.70;;;;;;5278406;26;20013;-63
2024/04/23 11:28:56;;;;;;;531.28;104.00;;;18.00;46.90;;;;;;5278107;26;20064;-61
2024/04/23 11:31:28;;;;;;;492.77;98.07;;;18.00;46.90;;;;;;5277106;26;19998;-61
2024/04/23 11:33:57;;;;;;;492.52;107.70;;;18.30;47.20;;;;;;5279079;26;20419;-61
2024/04/23 11:36:32;;;;;;;505.55;111.68;;;18.50;47.10;;;;;;5278292;26;20013;-62
2024/04/23 11:39:06;;;;;;;517.63;107.93;;;18.70;46.90;;;;;;5280798;26;20002;-62
2024/04/23 11:41:38;;;;;;;527.95;120.97;;;18.70;46.40;;;;;;5280750;26;20002;-61
2024/04/23 11:44:06;;;;;;;686.33;178.40;;;18.50;46.00;;;;;;5267742;26;20029;-61
2024/04/23 11:46:42;;;;;;;531.53;122.80;;;18.30;46.00;;;;;;5272389;26;20681;-60
2024/04/23 11:49:10;;;;;;;504.23;108.97;;;18.20;46.40;;;;;;5278188;26;20017;-65
2024/04/23 11:51:44;;;;;;;617.33;134.43;;;18.30;46.80;;;;;;5308993;26;20002;-60
2024/04/23 11:54:12;;;;;;;495.38;98.95;;;18.50;46.80;;;;;;5281759;26;19998;-61
2024/04/23 11:56:43;;;;;;;705.55;162.68;;;18.50;46.60;;;;;;5265239;26;20031;-59
2024/04/23 11:59:14;;;;;;;531.00;112.07;;;18.50;46.40;;;;;;5280610;26;21229;-60
2024/04/23 12:01:44;;;;;;;501.52;122.65;;;18.50;46.60;;;;;;5279189;26;20005;-64
2024/04/23 12:04:15;;;;;;;494.25;108.63;;;18.40;46.40;;;;;;5275150;26;20041;-65
2024/04/23 12:06:51;;;;;;;526.70;103.63;;;18.30;46.50;;;;;;5276439;26;20823;-64
2024/04/23 12:09:19;;;;;;;572.90;132.23;;;18.10;46.50;;;;;;5262330;26;20001;-61
2024/04/23 12:11:50;;;;;;;510.92;100.28;;;18.00;46.60;;;;;;5280733;26;20009;-61
2024/04/23 12:14:19;;;;;;;614.92;133.98;;;17.80;46.50;;;;;;5272990;26;20009;-61
2024/04/23 12:16:50;;;;;;;499.67;97.75;;;17.70;46.70;;;;;;5285501;26;20002;-63
2024/04/23 12:19:18;;;;;;;552.45;131.52;;;17.60;46.70;;;;;;5272982;26;20378;-61
2024/04/23 12:21:52;;;;;;;510.10;99.45;;;17.40;46.70;;;;;;5277431;26;20001;-61
2024/04/23 12:24:20;;;;;;;510.55;100.88;;;17.30;46.80;;;;;;5282264;26;20014;-59
2024/04/23 12:26:54;;;;;;;528.10;102.53;;;17.30;46.90;;;;;;5284282;26;20559;-60
2024/04/23 12:29:29;;;;;;;535.28;102.22;;;17.10;46.90;;;;;;5274979;26;20083;-63
2024/04/23 12:32:00;;;;;;;523.47;100.60;;;17.00;46.90;;;;;;5270873;26;20010;-61
2024/04/23 12:34:28;;;;;;;509.70;95.05;;;17.00;47.00;;;;;;5280401;26;20787;-61
2024/04/23 12:37:02;;;;;;;601.33;126.30;;;16.90;47.10;;;;;;5275451;26;20017;-59
2024/04/23 12:39:31;;;;;;;503.55;94.88;;;16.80;47.20;;;;;;5272973;26;20016;-61
2024/04/23 12:42:12;;;;;;;521.38;99.03;;;16.90;47.30;;;;;;5280189;26;20017;-61